TimeAST,TemperatureF,Dew PointF,Humidity,Sea Level PressureIn,VisibilityMPH,Wind Direction,Wind SpeedMPH,Gust SpeedMPH,PrecipitationIn,Events,Conditions,WindDirDegrees,DateUTC
12:00 AM,36.5,17.4,46,29.67,-9999.0,West,40.3,48.3,N/A,,Unknown,270,2013-01-21 04:00:00
1:00 AM,33.6,23.4,66,29.70,-9999.0,West,38.0,44.9,N/A,,Unknown,280,2013-01-21 05:00:00
2:00 AM,30,16,43,29.75,,West,40.3,,,,,280,2013-01-21 06:00:00
2:00 AM,29.8,16.2,57,29.75,-9999.0,West,40.3,48.3,N/A,,Unknown,280,2013-01-21 06:00:00
3:00 AM,28.6,17.1,62,29.79,-9999.0,West,42.6,54.1,N/A,,Unknown,280,2013-01-21 07:00:00
4:00 AM,27.1,14.9,60,29.81,-9999.0,West,42.6,50.6,N/A,,Unknown,280,2013-01-21 08:00:00
5:00 AM,25.5,12.9,59,29.83,-9999.0,West,40.3,50.6,N/A,,Unknown,270,2013-01-21 09:00:00
6:00 AM,23.9,12.9,63,29.87,-9999.0,West,40.3,48.3,N/A,,Unknown,280,2013-01-21 10:00:00
7:00 AM,22.5,13.6,69,29.91,-9999.0,West,32.2,-,N/A,,Unknown,280,2013-01-21 11:00:00
8:00 AM,21,12,56,29.94,,West,29.9,,,,,280,2013-01-21 12:00:00
8:00 AM,21.4,12.0,67,29.94,-9999.0,West,29.9,38.0,N/A,,Unknown,280,2013-01-21 12:00:00
9:00 AM,20.1,10.4,66,29.98,-9999.0,West,31.1,39.1,N/A,,Unknown,280,2013-01-21 13:00:00
10:00 AM,20.3,13.1,74,30.01,-9999.0,WNW,29.9,35.7,N/A,,Unknown,290,2013-01-21 14:00:00
11:00 AM,20.3,10.6,66,30.03,-9999.0,West,25.3,33.4,N/A,,Unknown,270,2013-01-21 15:00:00
12:00 PM,20.8,9.5,62,30.03,-9999.0,West,24.2,32.2,0.01,,Unknown,270,2013-01-21 16:00:00
1:00 PM,20.7,7.0,56,30.01,-9999.0,West,24.2,31.1,N/A,,Unknown,270,2013-01-21 17:00:00
2:00 PM,20,8,47,30.00,,West,17.3,,,,,280,2013-01-21 18:00:00
2:00 PM,20.3,8.2,60,30.00,-9999.0,West,17.3,24.2,N/A,,Unknown,280,2013-01-21 18:00:00
3:00 PM,22.6,10.9,61,30.02,-9999.0,West,15.0,23.0,N/A,,Unknown,260,2013-01-21 19:00:00
4:00 PM,21.0,7.5,56,30.01,-9999.0,West,16.1,-,N/A,,Unknown,270,2013-01-21 20:00:00
5:00 PM,21.4,8.4,57,30.02,-9999.0,West,12.7,-,N/A,,Unknown,260,2013-01-21 21:00:00
6:00 PM,21.7,9.9,60,30.01,-9999.0,West,11.5,-,N/A,,Unknown,260,2013-01-21 22:00:00
7:00 PM,22.3,8.2,55,30.00,-9999.0,West,12.7,-,N/A,,Unknown,270,2013-01-21 23:00:00
8:00 PM,23,7,36,30.00,,West,13.8,,,,,280,2013-01-22 00:00:00
8:00 PM,23.2,7.2,50,30.00,-9999.0,West,13.8,-,N/A,,Unknown,280,2013-01-22 00:00:00
9:00 PM,23.9,9.0,53,30.01,-9999.0,West,10.4,-,N/A,,Unknown,260,2013-01-22 01:00:00
10:00 PM,24.1,7.3,49,30.02,-9999.0,WNW,11.5,18.4,N/A,,Unknown,290,2013-01-22 02:00:00
11:00 PM,24.3,11.7,59,30.00,-9999.0,NW,12.7,-,N/A,,Unknown,310,2013-01-22 03:00:00